createdAt,value
2019-04-14T00:02:12.663Z,40.08
2019-04-14T00:04:46.900Z,42.13
2019-04-14T00:07:17.278Z,43.05
2019-04-14T00:09:47.694Z,42.45
2019-04-14T00:12:18.764Z,42.05
2019-04-14T00:14:49.241Z,42.58
2019-04-14T00:17:19.587Z,45.83
2019-04-14T00:19:50.233Z,42.75
2019-04-14T00:22:20.851Z,43.65
2019-04-14T00:24:51.238Z,39.38
2019-04-14T00:27:21.645Z,39.40
2019-04-14T00:29:52.473Z,42.85
2019-04-14T00:32:23.215Z,40.30
2019-04-14T00:35:16.644Z,44.70
2019-04-14T00:38:09.083Z,41.40
2019-04-14T00:40:45.428Z,45.10
2019-04-14T00:43:50.617Z,41.40
2019-04-14T00:46:40.981Z,38.80
2019-04-14T00:49:11.609Z,45.25
2019-04-14T00:51:42.430Z,35.98
2019-04-14T00:54:13.248Z,40.48
2019-04-14T00:56:43.696Z,44.45
2019-04-14T00:59:14.037Z,98.60
2019-04-14T01:01:44.409Z,46.70
2019-04-14T01:04:14.782Z,39.85
2019-04-14T01:06:45.161Z,35.80
2019-04-14T01:09:15.745Z,39.55
2019-04-14T01:11:46.513Z,37.88
2019-04-14T01:14:17.005Z,41.73
2019-04-14T01:16:47.419Z,35.20
2019-04-14T01:19:17.831Z,36.70
2019-04-14T01:21:48.222Z,39.48
2019-04-14T01:24:18.639Z,34.98
2019-04-14T01:26:49.097Z,32.28
2019-04-14T01:29:19.499Z,31.77
2019-04-14T01:31:49.883Z,36.75
2019-04-14T01:34:21.580Z,34.30
2019-04-14T01:36:52.090Z,31.95
2019-04-14T01:39:22.572Z,30.25
2019-04-14T01:41:54.218Z,31.55
2019-04-14T01:44:24.802Z,35.95
2019-04-14T01:46:56.502Z,36.53
2019-04-14T01:49:27.262Z,36.25
2019-04-14T01:52:16.676Z,35.85
2019-04-14T01:55:15.439Z,36.33
2019-04-14T01:57:56.867Z,38.48
2019-04-14T02:00:53.088Z,39.58
2019-04-14T02:03:23.903Z,39.98
2019-04-14T02:05:54.325Z,36.85
2019-04-14T02:08:24.706Z,37.23
2019-04-14T02:10:55.054Z,37.90
2019-04-14T02:13:26.720Z,36.93
2019-04-14T02:15:57.387Z,40.03
2019-04-14T02:18:27.840Z,37.33
2019-04-14T02:20:58.255Z,34.85
2019-04-14T02:23:30.091Z,35.70
2019-04-14T02:26:00.669Z,32.10
2019-04-14T02:28:31.065Z,32.85
2019-04-14T02:31:13.211Z,36.45
2019-04-14T02:34:21.618Z,37.67
2019-04-14T02:36:30.763Z,38.98
2019-04-14T02:39:22.282Z,34.13
2019-04-14T02:41:43.576Z,37.10
2019-04-14T02:46:46.008Z,35.92
2019-04-14T02:49:12.474Z,37.70
2019-04-14T02:54:23.330Z,36.88
2019-04-14T02:56:59.018Z,33.48
2019-04-14T02:59:22.857Z,31.87
2019-04-14T03:02:10.022Z,32.53
2019-04-14T03:04:25.912Z,33.80
2019-04-14T03:06:55.104Z,33.28
2019-04-14T03:12:01.662Z,36.48
2019-04-14T03:14:40.389Z,34.60
2019-04-14T03:17:30.139Z,34.90
2019-04-14T03:20:30.163Z,38.45
2019-04-14T03:22:56.185Z,37.38
2019-04-14T03:25:59.227Z,36.80
2019-04-14T03:28:46.066Z,34.90
2019-04-14T03:38:53.167Z,35.40
2019-04-14T03:43:49.996Z,37.93
2019-04-14T03:46:27.451Z,35.05
2019-04-14T03:57:02.242Z,36.42
2019-04-14T03:59:32.602Z,37.50
2019-04-14T04:02:03.220Z,39.85
2019-04-14T04:04:33.854Z,38.23
2019-04-14T04:07:04.228Z,42.78
2019-04-14T04:09:53.989Z,41.42
2019-04-14T04:12:24.710Z,41.75
2019-04-14T04:14:55.304Z,40.20
2019-04-14T04:17:47.805Z,43.90
2019-04-14T04:20:32.831Z,42.73
2019-04-14T04:23:38.151Z,46.42
2019-04-14T04:26:16.934Z,47.73
2019-04-14T04:29:12.152Z,41.85
2019-04-14T04:32:05.683Z,42.25
2019-04-14T04:34:55.610Z,44.58
2019-04-14T04:37:34.397Z,45.15
2019-04-14T04:40:11.388Z,43.20
2019-04-14T04:42:41.993Z,45.75
2019-04-14T04:45:12.743Z,43.02
2019-04-14T04:47:43.245Z,45.67
2019-04-14T04:50:13.609Z,45.80
2019-04-14T04:52:45.031Z,44.38
2019-04-14T04:55:15.655Z,42.78
2019-04-14T04:57:46.091Z,42.67
2019-04-14T05:00:17.790Z,44.13
2019-04-14T05:02:48.499Z,42.93
2019-04-14T05:05:55.738Z,40.33
2019-04-14T05:08:26.334Z,40.73
2019-04-14T05:11:03.192Z,45.25
2019-04-14T05:13:38.490Z,55.58
2019-04-14T05:16:10.630Z,47.30
2019-04-14T05:18:41.914Z,42.17
2019-04-14T05:21:23.989Z,47.00
2019-04-14T05:23:54.365Z,48.65
2019-04-14T05:26:24.755Z,47.27
2019-04-14T05:28:55.205Z,42.75
2019-04-14T05:31:27.784Z,42.83
2019-04-14T05:33:57.762Z,50.15
2019-04-14T05:36:28.237Z,43.38
2019-04-14T05:38:58.606Z,45.17
2019-04-14T05:41:29.014Z,50.73
2019-04-14T05:44:01.574Z,42.90
2019-04-14T05:46:31.689Z,43.45
2019-04-14T05:49:02.302Z,48.48
2019-04-14T05:51:33.145Z,48.65
2019-04-14T05:54:03.543Z,50.60
2019-04-14T05:56:36.060Z,47.03
2019-04-14T05:59:06.743Z,45.45
2019-04-14T06:01:37.157Z,41.83
2019-04-14T06:04:07.555Z,41.85
2019-04-14T06:06:37.953Z,47.48
2019-04-14T06:09:08.714Z,45.38
2019-04-14T06:11:39.163Z,46.80
2019-04-14T06:14:09.523Z,46.18
2019-04-14T06:16:39.926Z,43.40
2019-04-14T06:19:10.274Z,44.08
2019-04-14T06:21:40.878Z,43.95
2019-04-14T06:24:11.381Z,44.00
2019-04-14T06:26:41.817Z,42.85
2019-04-14T06:29:12.249Z,40.25
2019-04-14T06:32:00.416Z,46.60
2019-04-14T06:34:55.601Z,40.85
2019-04-14T06:37:38.554Z,46.63
2019-04-14T06:40:09.033Z,41.70
2019-04-14T06:42:39.426Z,45.78
2019-04-14T06:45:11.266Z,45.90
2019-04-14T06:47:41.662Z,48.45
2019-04-14T06:50:12.017Z,43.80
2019-04-14T06:52:42.460Z,42.05
2019-04-14T06:55:13.044Z,40.08
2019-04-14T06:57:43.402Z,39.60
2019-04-14T07:00:13.861Z,71.85
2019-04-14T07:02:45.501Z,48.30
2019-04-14T07:05:16.386Z,38.98
2019-04-14T07:07:57.044Z,37.70
2019-04-14T07:10:20.955Z,41.98
2019-04-14T07:12:51.357Z,41.28
2019-04-14T07:15:21.767Z,36.20
2019-04-14T07:17:52.138Z,38.50
2019-04-14T07:20:22.503Z,39.27
2019-04-14T07:22:52.896Z,38.58
2019-04-14T07:25:23.354Z,34.30
2019-04-14T07:27:53.736Z,36.15
2019-04-14T07:30:49.125Z,36.90
2019-04-14T07:33:38.446Z,38.78
2019-04-14T07:36:22.421Z,36.25
2019-04-14T07:39:17.814Z,39.95
2019-04-14T07:42:13.041Z,37.38
2019-04-14T07:45:02.393Z,41.98
2019-04-14T07:47:47.125Z,42.23
2019-04-14T07:50:51.533Z,40.35
2019-04-14T07:53:34.922Z,38.70
2019-04-14T07:56:20.604Z,40.85
2019-04-14T07:59:16.079Z,40.05
2019-04-14T08:01:52.759Z,46.58
2019-04-14T08:04:28.933Z,43.15
2019-04-14T08:07:00.173Z,42.38
2019-04-14T08:09:30.636Z,45.90
2019-04-14T08:12:01.096Z,47.30
2019-04-14T08:14:31.525Z,45.30
2019-04-14T08:17:01.948Z,40.95
2019-04-14T08:19:32.373Z,45.83
2019-04-14T08:22:02.760Z,45.95
2019-04-14T08:24:33.256Z,42.62
2019-04-14T08:27:03.673Z,41.92
2019-04-14T08:29:34.065Z,40.50
2019-04-14T08:32:04.432Z,44.15
2019-04-14T08:34:34.839Z,40.03
2019-04-14T08:37:05.224Z,45.17
2019-04-14T08:39:35.870Z,42.98
2019-04-14T08:42:31.235Z,37.10
2019-04-14T08:45:08.942Z,39.90
2019-04-14T08:47:49.525Z,39.05
2019-04-14T08:50:40.757Z,40.85
2019-04-14T08:53:30.073Z,41.80
2019-04-14T08:56:09.662Z,39.58
2019-04-14T08:59:11.105Z,42.43
2019-04-14T09:02:00.468Z,37.10
2019-04-14T09:05:08.190Z,39.80
2019-04-14T09:07:44.145Z,37.90
2019-04-14T09:10:17.534Z,43.35
2019-04-14T09:12:49.306Z,37.70
2019-04-14T09:15:22.163Z,36.42
2019-04-14T09:17:52.548Z,40.63
2019-04-14T09:20:22.958Z,40.05
2019-04-14T09:22:53.373Z,41.63
2019-04-14T09:25:23.871Z,34.98
2019-04-14T09:27:54.333Z,35.38
2019-04-14T09:30:24.774Z,36.53
2019-04-14T09:32:55.270Z,37.65
2019-04-14T09:35:25.733Z,34.60
2019-04-14T09:37:56.153Z,39.90
2019-04-14T09:40:26.585Z,45.75
2019-04-14T09:42:57.778Z,36.95
2019-04-14T09:45:28.362Z,35.48
2019-04-14T09:47:58.802Z,38.40
2019-04-14T09:50:29.242Z,40.73
2019-04-14T09:52:59.714Z,36.80
2019-04-14T09:55:30.090Z,33.70
2019-04-14T09:58:00.523Z,41.28
2019-04-14T10:00:32.685Z,36.00
2019-04-14T10:03:03.181Z,37.45
2019-04-14T10:05:33.606Z,37.93
2019-04-14T10:08:04.091Z,36.95
2019-04-14T10:10:34.538Z,34.43
2019-04-14T10:13:05.092Z,38.55
2019-04-14T10:15:35.574Z,41.28
2019-04-14T10:18:05.989Z,34.50
2019-04-14T10:20:36.401Z,37.65
2019-04-14T10:23:06.806Z,35.88
2019-04-14T10:25:37.238Z,36.35
2019-04-14T10:28:07.681Z,40.70
2019-04-14T10:30:38.082Z,36.60
2019-04-14T10:33:08.527Z,35.60
2019-04-14T10:35:38.969Z,31.82
2019-04-14T10:38:09.401Z,33.73
2019-04-14T10:40:39.846Z,39.58
2019-04-14T10:43:10.237Z,32.78
2019-04-14T10:45:40.651Z,33.78
2019-04-14T10:48:11.039Z,35.48
2019-04-14T10:50:41.484Z,36.17
2019-04-14T10:53:14.641Z,36.65
2019-04-14T10:55:45.071Z,35.50
2019-04-14T10:58:15.454Z,35.92
2019-04-14T11:00:45.850Z,35.80
2019-04-14T11:03:16.209Z,35.08
2019-04-14T11:06:06.981Z,35.65
2019-04-14T11:08:37.377Z,34.65
2019-04-14T11:11:07.785Z,34.80
2019-04-14T11:13:38.148Z,34.20
2019-04-14T11:16:08.556Z,34.65
2019-04-14T11:18:38.967Z,34.85
2019-04-14T11:21:09.376Z,36.30
2019-04-14T11:23:39.762Z,32.08
2019-04-14T11:26:10.178Z,35.23
2019-04-14T11:28:41.926Z,38.88
2019-04-14T11:31:13.433Z,35.55
2019-04-14T11:34:00.552Z,32.50
2019-04-14T11:36:52.797Z,35.28
2019-04-14T11:39:23.457Z,35.83
2019-04-14T11:41:53.923Z,36.60
2019-04-14T11:44:24.425Z,34.23
2019-04-14T11:46:54.931Z,33.02
2019-04-14T11:49:25.376Z,34.05
2019-04-14T11:51:55.935Z,34.60
2019-04-14T11:54:26.389Z,32.33
2019-04-14T11:56:56.811Z,31.62
2019-04-14T11:59:38.118Z,31.55
2019-04-14T12:02:22.860Z,31.27
2019-04-14T12:05:06.462Z,30.12
2019-04-14T12:07:58.651Z,29.60
2019-04-14T12:10:30.774Z,31.68
2019-04-14T12:13:01.277Z,29.37
2019-04-14T12:15:34.393Z,31.07
2019-04-14T12:18:03.852Z,30.55
2019-04-14T12:20:34.387Z,27.48
2019-04-14T12:23:04.810Z,27.10
2019-04-14T12:25:35.223Z,30.90
2019-04-14T12:28:06.884Z,31.50
2019-04-14T12:30:37.757Z,34.25
2019-04-14T12:33:08.477Z,33.73
2019-04-14T12:35:38.929Z,33.25
2019-04-14T12:38:09.384Z,30.65
2019-04-14T12:40:40.243Z,31.40
2019-04-14T12:43:41.826Z,32.08
2019-04-14T12:46:31.200Z,29.25
2019-04-14T12:49:09.386Z,30.80
2019-04-14T12:51:45.350Z,33.95
2019-04-14T12:54:15.810Z,31.33
2019-04-14T12:56:46.247Z,33.58
2019-04-14T12:59:23.114Z,30.00
2019-04-14T13:02:06.149Z,30.08
2019-04-14T13:04:36.586Z,34.47
2019-04-14T13:07:07.013Z,31.77
2019-04-14T13:09:37.453Z,33.90
2019-04-14T13:12:10.159Z,32.75
2019-04-14T13:14:40.020Z,32.38
2019-04-14T13:17:10.480Z,35.13
2019-04-14T13:19:40.939Z,30.12
2019-04-14T13:22:11.327Z,27.17
2019-04-14T13:24:41.849Z,29.90
2019-04-14T13:27:12.257Z,31.30
2019-04-14T13:29:42.683Z,31.77
2019-04-14T13:32:13.126Z,51.10
2019-04-14T13:34:43.579Z,35.43
2019-04-14T13:37:14.034Z,29.27
2019-04-14T13:39:44.572Z,27.60
2019-04-14T13:42:14.973Z,26.00
2019-04-14T13:44:45.431Z,25.57
2019-04-14T13:47:15.843Z,24.45
2019-04-14T13:49:46.313Z,23.92
2019-04-14T13:52:16.784Z,23.47
2019-04-14T13:54:47.310Z,24.72
2019-04-14T13:57:17.735Z,23.32
2019-04-14T13:59:48.224Z,20.20
2019-04-14T14:02:18.676Z,23.32
2019-04-14T14:04:49.134Z,21.33
2019-04-14T14:07:19.700Z,21.03
2019-04-14T14:09:50.188Z,20.27
2019-04-14T14:12:34.611Z,21.87
2019-04-14T14:15:34.646Z,17.77
2019-04-14T14:18:29.778Z,17.30
2019-04-14T14:21:14.912Z,17.92
2019-04-14T14:24:04.369Z,18.55
2019-04-14T14:26:36.095Z,15.50
2019-04-14T14:29:06.503Z,16.30
2019-04-14T14:31:36.948Z,16.20
2019-04-14T14:34:07.369Z,17.53
2019-04-14T14:36:37.831Z,16.30
2019-04-14T14:39:10.293Z,18.97
2019-04-14T14:41:40.746Z,16.37
2019-04-14T14:44:11.139Z,20.57
2019-04-14T14:46:47.834Z,16.90
2019-04-14T14:49:43.327Z,18.43
2019-04-14T14:52:15.420Z,19.27
2019-04-14T14:54:45.862Z,16.17
2019-04-14T14:57:16.309Z,17.42
2019-04-14T14:59:46.884Z,21.50
2019-04-14T15:02:17.420Z,19.53
2019-04-14T15:04:47.827Z,22.52
2019-04-14T15:07:18.290Z,20.50
2019-04-14T15:09:48.708Z,18.87
2019-04-14T15:12:19.144Z,18.12
2019-04-14T15:14:49.566Z,17.77
2019-04-14T15:17:19.999Z,15.90
2019-04-14T15:19:50.402Z,19.10
2019-04-14T15:22:20.814Z,21.20
2019-04-14T15:24:51.265Z,16.73
2019-04-14T15:27:21.752Z,20.68
2019-04-14T15:29:52.220Z,18.42
2019-04-14T15:32:22.650Z,15.65
2019-04-14T15:34:53.055Z,18.52
2019-04-14T15:37:23.532Z,18.80
2019-04-14T15:39:53.953Z,20.15
2019-04-14T15:42:24.475Z,16.87
2019-04-14T15:44:54.860Z,17.20
2019-04-14T15:47:25.303Z,19.98
2019-04-14T15:49:55.730Z,18.43
2019-04-14T15:52:26.210Z,17.55
2019-04-14T15:54:56.619Z,22.48
2019-04-14T15:57:31.590Z,17.80
2019-04-14T16:00:19.966Z,18.30
2019-04-14T16:03:09.362Z,18.07
2019-04-14T16:05:59.489Z,17.45
2019-04-14T16:08:33.850Z,21.45
2019-04-14T16:11:14.353Z,19.27
2019-04-14T16:13:59.538Z,17.30
2019-04-14T16:16:48.901Z,19.52
2019-04-14T16:19:32.170Z,20.32
2019-04-14T16:22:02.658Z,16.73
2019-04-14T16:24:33.145Z,18.98
2019-04-14T16:27:25.610Z,16.15
2019-04-14T16:30:15.003Z,20.35
2019-04-14T16:33:04.448Z,19.30
2019-04-14T16:35:34.899Z,19.73
2019-04-14T16:38:05.450Z,17.12
2019-04-14T16:40:36.804Z,21.07
2019-04-14T16:43:07.282Z,22.22
2019-04-14T16:45:37.755Z,21.60
2019-04-14T16:48:08.213Z,18.70
2019-04-14T16:50:38.645Z,17.02
2019-04-14T16:53:16.497Z,17.87
2019-04-14T16:56:14.807Z,21.00
2019-04-14T16:58:54.043Z,23.02
2019-04-14T17:01:39.129Z,15.78
2019-04-14T17:04:09.557Z,22.77
2019-04-14T17:06:40.027Z,17.52
2019-04-14T17:09:10.688Z,19.52
2019-04-14T17:11:41.130Z,20.75
2019-04-14T17:14:32.040Z,17.05
2019-04-14T17:17:09.834Z,14.75
2019-04-14T17:19:51.779Z,17.85
2019-04-14T17:22:28.334Z,17.52
2019-04-14T17:25:03.904Z,15.75
2019-04-14T17:27:39.539Z,16.85
2019-04-14T17:30:18.679Z,15.50
2019-04-14T17:33:26.178Z,15.72
2019-04-14T17:36:24.634Z,15.75
2019-04-14T17:39:18.570Z,19.42
2019-04-14T17:42:04.192Z,16.12
2019-04-14T17:44:40.141Z,15.35
2019-04-14T17:47:44.689Z,16.57
2019-04-14T17:50:52.493Z,17.17
2019-04-14T17:53:30.909Z,15.13
2019-04-14T17:56:23.560Z,18.45
2019-04-14T17:59:15.754Z,15.08
2019-04-14T18:02:17.210Z,17.62
2019-04-14T18:05:12.465Z,14.55
2019-04-14T18:07:55.423Z,17.25
2019-04-14T18:10:40.069Z,15.38
2019-04-14T18:13:33.514Z,14.13
2019-04-14T18:16:24.113Z,16.65
2019-04-14T18:19:13.445Z,17.05
2019-04-14T18:21:44.387Z,16.50
2019-04-14T18:24:14.989Z,16.82
2019-04-14T18:26:45.405Z,15.72
2019-04-14T18:29:27.679Z,18.27
2019-04-14T18:32:12.045Z,17.77
2019-04-14T18:35:04.321Z,15.83
2019-04-14T18:37:41.463Z,17.25
2019-04-14T18:40:39.969Z,36.28
2019-04-14T18:43:28.283Z,21.30
2019-04-14T18:46:07.418Z,16.32
2019-04-14T18:48:59.589Z,16.45
2019-04-14T18:51:48.958Z,17.20
2019-04-14T18:54:54.693Z,19.85
2019-04-14T18:57:27.749Z,13.53
2019-04-14T19:00:19.634Z,14.53
2019-04-14T19:02:50.205Z,15.63
2019-04-14T19:05:21.007Z,17.65
2019-04-14T19:07:51.869Z,15.85
2019-04-14T19:10:22.593Z,20.15
2019-04-14T19:12:58.408Z,22.48
2019-04-14T19:15:36.464Z,22.42
2019-04-14T19:18:25.860Z,14.93
2019-04-14T19:21:03.105Z,16.32
2019-04-14T19:23:33.647Z,16.70
2019-04-14T19:26:04.146Z,18.15
2019-04-14T19:28:34.622Z,14.87
2019-04-14T19:31:05.190Z,15.85
2019-04-14T19:33:35.620Z,16.10
2019-04-14T19:36:06.064Z,17.17
2019-04-14T19:38:36.461Z,16.80
2019-04-14T19:41:08.615Z,18.65
2019-04-14T19:43:38.999Z,19.30
2019-04-14T19:46:09.427Z,15.70
2019-04-14T19:48:39.795Z,17.80
2019-04-14T19:51:10.304Z,18.27
2019-04-14T19:53:40.789Z,20.35
2019-04-14T19:56:11.253Z,15.80
2019-04-14T19:58:41.705Z,17.20
2019-04-14T20:01:12.144Z,18.42
2019-04-14T20:03:42.689Z,16.20
2019-04-14T20:06:13.137Z,19.82
2019-04-14T20:08:43.595Z,18.07
2019-04-14T20:11:14.027Z,18.25
2019-04-14T20:13:46.673Z,18.30
2019-04-14T20:16:34.310Z,17.12
2019-04-14T20:19:33.800Z,24.10
2019-04-14T20:22:29.245Z,24.02
2019-04-14T20:25:17.338Z,23.60
2019-04-14T20:27:52.567Z,25.35
2019-04-14T20:30:33.197Z,22.37
2019-04-14T20:33:03.591Z,23.85
2019-04-14T20:35:34.293Z,20.90
2019-04-14T20:38:04.777Z,17.55
2019-04-14T20:40:35.351Z,17.92
2019-04-14T20:43:05.836Z,17.23
2019-04-14T20:45:36.232Z,19.50
2019-04-14T20:48:06.637Z,19.40
2019-04-14T20:50:37.002Z,16.95
2019-04-14T20:53:07.425Z,17.57
2019-04-14T20:55:46.684Z,15.65
2019-04-14T20:58:10.449Z,17.77
2019-04-14T21:00:40.876Z,17.62
2019-04-14T21:03:31.652Z,18.35
2019-04-14T21:06:17.010Z,18.20
2019-04-14T21:09:12.513Z,16.87
2019-04-14T21:11:52.770Z,13.28
2019-04-14T21:14:35.487Z,20.12
2019-04-14T21:17:27.625Z,18.00
2019-04-14T21:20:32.523Z,18.32
2019-04-14T21:23:24.673Z,15.23
2019-04-14T21:26:02.772Z,14.98
2019-04-14T21:28:52.294Z,16.25
2019-04-14T21:31:41.658Z,17.60
2019-04-14T21:34:39.990Z,16.17
2019-04-14T21:37:29.386Z,15.08
2019-04-14T21:40:18.726Z,17.87
2019-04-14T21:42:49.121Z,18.30
2019-04-14T21:45:19.654Z,16.20
2019-04-14T21:47:50.046Z,19.92
2019-04-14T21:50:20.436Z,21.42
2019-04-14T21:52:50.817Z,22.73
2019-04-14T21:55:21.221Z,21.75
2019-04-14T21:58:11.310Z,25.88
2019-04-14T22:01:52.317Z,21.73
2019-04-14T22:04:48.308Z,20.90
2019-04-14T22:07:40.751Z,22.62
2019-04-14T22:10:39.889Z,19.45
2019-04-14T22:13:10.261Z,20.00
2019-04-14T22:15:40.666Z,15.05
2019-04-14T22:18:11.141Z,19.00
2019-04-14T22:20:41.532Z,17.95
2019-04-14T22:23:13.387Z,18.27
2019-04-14T22:25:43.766Z,20.65
2019-04-14T22:28:14.146Z,20.65
2019-04-14T22:30:44.565Z,14.98
2019-04-14T22:33:15.320Z,15.32
2019-04-14T22:35:45.697Z,13.95
2019-04-14T22:38:16.079Z,11.30
2019-04-14T22:40:46.461Z,13.45
2019-04-14T22:43:16.846Z,11.48
2019-04-14T22:45:47.197Z,13.32
2019-04-14T22:48:17.611Z,10.10
2019-04-14T22:50:47.990Z,14.73
2019-04-14T22:53:18.394Z,12.07
2019-04-14T22:55:48.811Z,12.03
2019-04-14T22:58:19.190Z,13.58
2019-04-14T23:01:02.215Z,12.63
2019-04-14T23:03:56.465Z,11.50
2019-04-14T23:06:44.794Z,11.20
2019-04-14T23:09:26.278Z,13.13
2019-04-14T23:12:09.293Z,15.05
2019-04-14T23:15:07.665Z,13.15
2019-04-14T23:17:45.404Z,13.22
2019-04-14T23:20:19.957Z,12.07
2019-04-14T23:23:06.446Z,11.95
2019-04-14T23:25:38.083Z,12.65
2019-04-14T23:28:08.603Z,11.60
2019-04-14T23:30:39.022Z,11.25
2019-04-14T23:33:09.441Z,13.35
2019-04-14T23:35:39.842Z,11.50
2019-04-14T23:38:10.301Z,16.70
2019-04-14T23:40:40.692Z,17.25
2019-04-14T23:43:11.113Z,17.70
2019-04-14T23:45:41.515Z,16.27
2019-04-14T23:48:11.929Z,14.53
2019-04-14T23:50:42.336Z,17.67
2019-04-14T23:53:12.742Z,12.33
2019-04-14T23:55:43.131Z,14.70
2019-04-14T23:58:13.570Z,13.40
